createdAt,value
2022-08-27T00:02:18.019Z,62.93
2022-08-27T00:04:47.305Z,63.04
2022-08-27T00:07:16.191Z,63.24
2022-08-27T00:09:44.268Z,63.14
2022-08-27T00:12:13.772Z,63.20
2022-08-27T00:14:41.838Z,63.33
2022-08-27T00:17:10.118Z,63.31
2022-08-27T00:19:38.811Z,63.34
2022-08-27T00:22:08.832Z,63.55
2022-08-27T00:24:45.216Z,63.62
2022-08-27T00:27:18.343Z,63.62
2022-08-27T00:29:47.786Z,63.53
2022-08-27T00:32:16.631Z,63.36
2022-08-27T00:34:45.054Z,63.38
2022-08-27T00:37:13.830Z,63.39
2022-08-27T00:39:42.011Z,63.60
2022-08-27T00:42:11.005Z,63.59
2022-08-27T00:44:39.522Z,63.78
2022-08-27T00:47:13.407Z,63.95
2022-08-27T00:49:46.896Z,63.86
2022-08-27T00:52:27.776Z,64.13
2022-08-27T00:55:04.542Z,64.33
2022-08-27T00:57:35.847Z,64.52
2022-08-27T01:00:06.620Z,64.75
2022-08-27T01:02:34.972Z,64.73
2022-08-27T01:05:09.020Z,64.86
2022-08-27T01:07:41.292Z,64.88
2022-08-27T01:10:18.677Z,64.94
2022-08-27T01:12:53.486Z,64.92
2022-08-27T01:15:24.627Z,65.02
2022-08-27T01:17:53.439Z,65.26
2022-08-27T01:20:26.125Z,65.16
2022-08-27T01:23:18.973Z,65.50
2022-08-27T01:25:47.990Z,65.66
2022-08-27T01:28:17.470Z,65.87
2022-08-27T01:30:50.258Z,66.18
2022-08-27T01:33:21.607Z,66.24
2022-08-27T01:35:52.545Z,66.27
2022-08-27T01:38:31.017Z,66.49
2022-08-27T01:41:01.338Z,66.95
2022-08-27T01:43:31.711Z,66.67
2022-08-27T01:46:00.601Z,66.75
2022-08-27T01:48:28.873Z,66.52
2022-08-27T01:50:57.053Z,66.66
2022-08-27T01:53:26.593Z,66.63
2022-08-27T01:55:56.085Z,66.64
2022-08-27T01:58:28.841Z,66.58
2022-08-27T02:01:00.813Z,66.37
2022-08-27T02:03:30.109Z,66.40
2022-08-27T02:05:58.594Z,66.38
2022-08-27T02:08:26.769Z,66.30
2022-08-27T02:10:54.940Z,66.26
2022-08-27T02:13:23.217Z,66.18
2022-08-27T02:15:51.434Z,66.17
2022-08-27T02:18:19.899Z,65.90
2022-08-27T02:20:49.238Z,65.68
2022-08-27T02:23:18.470Z,65.69
2022-08-27T02:25:49.509Z,65.90
2022-08-27T02:28:17.683Z,65.92
2022-08-27T02:30:45.847Z,65.95
2022-08-27T02:33:14.037Z,66.26
2022-08-27T02:35:44.088Z,66.37
2022-08-27T02:38:14.288Z,66.45
2022-08-27T02:40:42.655Z,66.80
2022-08-27T02:43:15.798Z,67.01
2022-08-27T02:45:44.528Z,67.27
2022-08-27T02:48:12.845Z,67.39
2022-08-27T02:50:41.594Z,67.39
2022-08-27T02:53:10.485Z,67.33
2022-08-27T02:55:38.577Z,67.74
2022-08-27T02:58:09.967Z,67.68
2022-08-27T03:00:38.388Z,67.66
2022-08-27T03:03:06.565Z,67.61
2022-08-27T03:05:35.090Z,67.71
2022-08-27T03:08:05.195Z,68.17
2022-08-27T03:10:34.059Z,68.21
2022-08-27T03:13:02.542Z,68.44
2022-08-27T03:15:30.713Z,68.27
2022-08-27T03:18:17.422Z,68.50
2022-08-27T03:20:53.636Z,68.55
2022-08-27T03:23:27.002Z,68.54
2022-08-27T03:25:58.124Z,68.75
2022-08-27T03:28:29.764Z,68.77
2022-08-27T03:31:01.499Z,68.59
2022-08-27T03:33:32.273Z,68.57
2022-08-27T03:36:00.851Z,68.35
2022-08-27T03:38:29.033Z,68.44
2022-08-27T03:40:57.203Z,68.59
2022-08-27T03:43:25.710Z,68.78
2022-08-27T03:46:01.758Z,68.67
2022-08-27T03:48:32.378Z,68.43
2022-08-27T03:51:06.763Z,68.16
2022-08-27T03:53:37.035Z,67.95
2022-08-27T03:56:06.469Z,67.91
2022-08-27T03:58:36.539Z,67.47
2022-08-27T04:01:06.254Z,67.48
2022-08-27T04:03:35.553Z,67.69
2022-08-27T04:06:03.831Z,67.99
2022-08-27T04:08:31.925Z,67.77
2022-08-27T04:11:00.142Z,67.90
2022-08-27T04:13:28.347Z,68.12
2022-08-27T04:15:57.079Z,68.31
2022-08-27T04:18:25.523Z,68.35
2022-08-27T04:20:53.894Z,68.56
2022-08-27T04:23:22.070Z,68.37
2022-08-27T04:25:50.278Z,68.49
2022-08-27T04:28:18.729Z,68.22
2022-08-27T04:30:47.600Z,68.34
2022-08-27T04:33:15.996Z,67.99
2022-08-27T04:35:44.072Z,67.63
2022-08-27T04:38:12.479Z,67.66
2022-08-27T04:40:59.156Z,67.69
2022-08-27T04:43:28.463Z,67.63
2022-08-27T04:45:57.090Z,67.92
2022-08-27T04:48:26.039Z,67.93
2022-08-27T04:50:54.719Z,67.67
2022-08-27T04:53:22.790Z,67.64
2022-08-27T04:55:53.832Z,67.58
2022-08-27T04:58:23.670Z,67.57
2022-08-27T05:00:54.413Z,67.82
2022-08-27T05:03:24.518Z,67.88
2022-08-27T05:05:54.517Z,67.76
2022-08-27T05:08:22.797Z,67.74
2022-08-27T05:10:51.902Z,67.66
2022-08-27T05:13:22.684Z,67.57
2022-08-27T05:15:59.362Z,67.59
2022-08-27T05:18:29.011Z,67.58
2022-08-27T05:20:58.430Z,67.52
2022-08-27T05:23:28.241Z,67.75
2022-08-27T05:25:57.836Z,67.56
2022-08-27T05:28:28.232Z,67.42
2022-08-27T05:31:05.393Z,66.95
2022-08-27T05:33:34.647Z,66.37
2022-08-27T05:36:03.142Z,66.05
2022-08-27T05:38:32.729Z,65.82
2022-08-27T05:41:04.597Z,65.66
2022-08-27T05:43:32.952Z,65.52
2022-08-27T05:46:07.153Z,65.28
2022-08-27T05:48:36.718Z,64.96
2022-08-27T05:51:25.952Z,65.06
2022-08-27T05:54:18.969Z,64.41
2022-08-27T05:56:49.493Z,63.66
2022-08-27T05:59:37.198Z,63.62
2022-08-27T06:02:07.304Z,63.57
2022-08-27T06:04:36.831Z,63.30
2022-08-27T06:07:06.716Z,63.34
2022-08-27T06:09:34.994Z,62.83
2022-08-27T06:12:03.613Z,62.88
2022-08-27T06:14:31.861Z,61.91
2022-08-27T06:17:01.463Z,61.61
2022-08-27T06:19:30.356Z,61.21
2022-08-27T06:22:10.001Z,61.13
2022-08-27T06:24:42.779Z,60.57
2022-08-27T06:27:16.301Z,61.14
2022-08-27T06:29:44.806Z,61.56
2022-08-27T06:32:15.043Z,61.60
2022-08-27T06:34:43.463Z,61.28
2022-08-27T06:37:11.640Z,61.09
2022-08-27T06:39:39.884Z,60.71
2022-08-27T06:42:13.519Z,60.67
2022-08-27T06:44:42.104Z,60.67
2022-08-27T06:47:11.407Z,60.22
2022-08-27T06:49:41.623Z,60.00
2022-08-27T06:52:15.632Z,60.18
2022-08-27T06:54:45.247Z,59.94
2022-08-27T06:57:13.415Z,59.69
2022-08-27T06:59:41.726Z,59.18
2022-08-27T07:02:10.048Z,58.47
2022-08-27T07:04:38.248Z,58.31
2022-08-27T07:07:06.451Z,58.63
2022-08-27T07:09:35.007Z,58.36
2022-08-27T07:12:04.110Z,57.81
2022-08-27T07:14:37.793Z,58.18
2022-08-27T07:17:10.934Z,57.89
2022-08-27T07:19:41.160Z,57.54
2022-08-27T07:22:11.135Z,57.80
2022-08-27T07:24:40.226Z,57.63
2022-08-27T07:27:09.043Z,57.01
2022-08-27T07:29:37.498Z,56.60
2022-08-27T07:32:05.963Z,57.02
2022-08-27T07:34:34.052Z,57.31
2022-08-27T07:37:02.230Z,56.78
2022-08-27T07:39:30.401Z,56.46
2022-08-27T07:42:17.237Z,56.22
2022-08-27T07:44:45.382Z,55.58
2022-08-27T07:47:13.717Z,55.57
2022-08-27T07:49:42.043Z,55.69
2022-08-27T07:52:10.552Z,55.36
2022-08-27T07:54:38.795Z,54.30
2022-08-27T07:57:06.973Z,54.27
2022-08-27T07:59:35.063Z,54.13
2022-08-27T08:02:04.050Z,54.63
2022-08-27T08:04:32.415Z,54.30
2022-08-27T08:07:00.381Z,54.07
2022-08-27T08:09:30.918Z,54.37
2022-08-27T08:11:59.129Z,53.67
2022-08-27T08:14:27.368Z,52.70
2022-08-27T08:17:00.251Z,53.06
2022-08-27T08:19:29.549Z,53.10
2022-08-27T08:22:04.944Z,52.24
2022-08-27T08:24:36.685Z,52.25
2022-08-27T08:27:07.701Z,52.60
2022-08-27T08:29:36.314Z,52.17
2022-08-27T08:32:07.760Z,51.61
2022-08-27T08:34:36.961Z,50.90
2022-08-27T08:37:06.945Z,50.67
2022-08-27T08:39:37.061Z,50.77
2022-08-27T08:42:10.765Z,49.95
2022-08-27T08:44:46.113Z,50.09
2022-08-27T08:47:22.301Z,50.12
2022-08-27T08:50:01.200Z,49.32
2022-08-27T08:52:34.903Z,49.64
2022-08-27T08:55:25.090Z,49.00
2022-08-27T08:58:12.619Z,48.42
2022-08-27T09:00:44.231Z,47.25
2022-08-27T09:03:14.702Z,47.09
2022-08-27T09:05:48.371Z,46.17
2022-08-27T09:08:35.249Z,45.84
2022-08-27T09:11:33.647Z,45.15
2022-08-27T09:14:04.057Z,44.68
2022-08-27T09:16:32.790Z,44.38
2022-08-27T09:19:02.729Z,45.44
2022-08-27T09:21:51.176Z,46.02
2022-08-27T09:24:48.228Z,46.09
2022-08-27T09:27:16.421Z,44.96
2022-08-27T09:29:50.722Z,44.68
2022-08-27T09:32:25.793Z,43.25
2022-08-27T09:34:58.642Z,41.73
2022-08-27T09:37:39.315Z,42.36
2022-08-27T09:40:32.539Z,42.86
2022-08-27T09:43:20.588Z,42.56
2022-08-27T09:45:52.756Z,42.46
2022-08-27T09:48:30.782Z,41.77
2022-08-27T09:51:01.822Z,38.95
2022-08-27T09:53:50.797Z,39.48
2022-08-27T09:56:38.213Z,38.40
2022-08-27T09:59:07.878Z,36.61
2022-08-27T10:02:02.594Z,36.39
2022-08-27T10:04:53.340Z,35.96
2022-08-27T10:07:31.430Z,36.00
2022-08-27T10:10:29.943Z,36.34
2022-08-27T10:13:10.378Z,36.99
2022-08-27T10:15:49.303Z,35.69
2022-08-27T10:18:41.489Z,34.63
2022-08-27T10:21:29.168Z,33.50
2022-08-27T10:24:27.959Z,33.52
2022-08-27T10:27:14.571Z,32.60
2022-08-27T10:29:52.773Z,32.96
2022-08-27T10:33:03.717Z,32.36
2022-08-27T10:35:51.863Z,32.61
2022-08-27T10:38:44.990Z,32.62
2022-08-27T10:41:22.650Z,31.17
2022-08-27T10:44:31.995Z,31.99
2022-08-27T10:47:18.416Z,31.57
2022-08-27T10:50:11.555Z,31.29
2022-08-27T10:52:51.500Z,31.34
2022-08-27T10:55:27.706Z,30.61
2022-08-27T10:58:21.074Z,30.15
2022-08-27T11:01:03.317Z,29.97
2022-08-27T11:03:40.312Z,28.95
2022-08-27T11:06:21.834Z,29.08
2022-08-27T11:08:55.874Z,29.10
2022-08-27T11:14:40.806Z,28.56
2022-08-27T11:17:16.264Z,28.18
2022-08-27T11:19:54.346Z,26.78
2022-08-27T11:22:34.735Z,25.96
2022-08-27T11:25:31.254Z,25.67
2022-08-27T11:28:01.369Z,25.89
2022-08-27T11:30:35.081Z,25.74
2022-08-27T11:33:48.309Z,26.32
2022-08-27T11:36:31.681Z,25.63
2022-08-27T11:39:36.671Z,25.93
2022-08-27T11:42:18.470Z,25.77
2022-08-27T11:44:49.922Z,24.77
2022-08-27T11:47:25.364Z,25.74
2022-08-27T11:50:01.329Z,25.64
2022-08-27T11:52:39.969Z,25.45
2022-08-27T11:55:17.333Z,25.13
2022-08-27T11:57:47.079Z,24.86
2022-08-27T12:00:29.393Z,24.84
2022-08-27T12:03:05.054Z,23.97
2022-08-27T12:05:41.140Z,23.70
2022-08-27T12:08:17.108Z,24.18
2022-08-27T12:10:54.217Z,24.73
2022-08-27T12:13:38.449Z,23.78
2022-08-27T12:16:35.001Z,24.26
2022-08-27T12:19:11.967Z,25.00
2022-08-27T12:21:39.989Z,25.14
2022-08-27T12:24:30.947Z,24.73
2022-08-27T12:27:01.785Z,23.99
2022-08-27T12:29:54.636Z,23.64
2022-08-27T12:32:34.098Z,24.45
2022-08-27T12:35:16.079Z,24.01
2022-08-27T12:37:49.073Z,24.96
2022-08-27T12:40:37.898Z,24.86
2022-08-27T12:43:26.301Z,24.49
2022-08-27T12:46:29.803Z,23.76
2022-08-27T12:49:36.964Z,24.43
2022-08-27T12:51:54.614Z,24.59
2022-08-27T12:54:59.230Z,23.13
2022-08-27T12:57:43.171Z,23.69
2022-08-27T13:00:19.618Z,23.20
2022-08-27T13:03:14.731Z,21.61
2022-08-27T13:05:46.965Z,21.47
2022-08-27T13:08:35.281Z,21.37
2022-08-27T13:11:18.060Z,22.17
2022-08-27T13:13:46.234Z,21.55
2022-08-27T13:16:17.311Z,21.79
2022-08-27T13:18:52.927Z,22.29
2022-08-27T13:21:28.457Z,22.69
2022-08-27T13:24:03.811Z,22.13
2022-08-27T13:26:37.061Z,22.00
2022-08-27T13:29:06.694Z,22.11
2022-08-27T13:31:36.332Z,22.89
2022-08-27T13:34:06.644Z,22.99
2022-08-27T13:36:58.225Z,23.00
2022-08-27T13:39:28.210Z,22.93
2022-08-27T13:42:01.006Z,22.07
2022-08-27T13:44:37.731Z,21.67
2022-08-27T13:47:09.025Z,22.51
2022-08-27T13:49:40.483Z,23.64
2022-08-27T13:52:27.354Z,23.32
2022-08-27T13:55:01.370Z,23.52
2022-08-27T13:57:43.678Z,22.78
2022-08-27T14:00:31.818Z,22.37
2022-08-27T14:03:04.065Z,22.54
2022-08-27T14:05:34.211Z,22.96
2022-08-27T14:08:14.296Z,23.05
2022-08-27T14:10:48.686Z,23.39
2022-08-27T14:13:16.750Z,23.75
2022-08-27T14:15:56.728Z,23.36
2022-08-27T14:18:42.525Z,23.53
2022-08-27T14:21:15.273Z,22.77
2022-08-27T14:23:43.548Z,22.37
2022-08-27T14:26:11.719Z,22.97
2022-08-27T14:28:39.896Z,22.45
2022-08-27T14:31:07.879Z,22.59
2022-08-27T14:33:36.043Z,22.32
2022-08-27T14:36:05.598Z,22.30
2022-08-27T14:38:36.996Z,22.20
2022-08-27T14:41:08.189Z,21.52
2022-08-27T14:43:36.667Z,21.15
2022-08-27T14:46:07.453Z,21.12
2022-08-27T14:48:35.940Z,21.42
2022-08-27T14:51:12.649Z,21.80
2022-08-27T14:53:40.789Z,22.82
2022-08-27T14:56:09.060Z,21.85
2022-08-27T14:58:37.438Z,22.26
2022-08-27T15:01:06.096Z,22.43
2022-08-27T15:03:39.125Z,21.75
2022-08-27T15:06:07.385Z,22.05
2022-08-27T15:08:36.382Z,21.49
2022-08-27T15:11:05.547Z,21.78
2022-08-27T15:13:34.473Z,21.35
2022-08-27T15:16:07.011Z,21.50
2022-08-27T15:18:35.325Z,21.62
2022-08-27T15:21:04.321Z,21.74
2022-08-27T15:23:32.696Z,22.29
2022-08-27T15:26:00.974Z,22.43
2022-08-27T15:28:29.518Z,22.19
2022-08-27T15:30:57.857Z,22.79
2022-08-27T15:33:26.319Z,23.17
2022-08-27T15:35:54.595Z,23.35
2022-08-27T15:38:22.667Z,23.90
2022-08-27T15:40:50.844Z,24.00
2022-08-27T15:43:19.528Z,24.18
2022-08-27T15:45:47.701Z,23.39
2022-08-27T15:48:15.795Z,23.57
2022-08-27T15:50:44.251Z,24.54
2022-08-27T15:53:13.085Z,24.25
2022-08-27T15:55:43.337Z,24.19
2022-08-27T15:58:11.965Z,24.75
2022-08-27T16:00:42.373Z,25.03
2022-08-27T16:03:13.261Z,25.21
2022-08-27T16:05:46.258Z,25.60
2022-08-27T16:08:14.785Z,26.08
2022-08-27T16:10:42.955Z,26.37
2022-08-27T16:13:11.026Z,26.72
2022-08-27T16:15:40.867Z,26.77
2022-08-27T16:18:10.342Z,27.06
2022-08-27T16:20:39.245Z,27.50
2022-08-27T16:23:08.232Z,27.51
2022-08-27T16:25:36.324Z,27.98
2022-08-27T16:28:04.398Z,28.40
2022-08-27T16:30:32.899Z,29.28
2022-08-27T16:33:01.493Z,30.39
2022-08-27T16:35:30.436Z,31.23
2022-08-27T16:37:58.917Z,31.22
2022-08-27T16:40:27.661Z,31.49
2022-08-27T16:42:55.756Z,31.49
2022-08-27T16:45:24.358Z,31.63
2022-08-27T16:48:11.338Z,32.38
2022-08-27T16:50:41.903Z,33.19
2022-08-27T16:53:22.203Z,33.70
2022-08-27T16:55:51.936Z,34.14
2022-08-27T16:58:22.024Z,34.78
2022-08-27T17:00:53.188Z,35.18
2022-08-27T17:03:24.059Z,36.03
2022-08-27T17:05:53.070Z,36.38
2022-08-27T17:08:26.140Z,36.73
2022-08-27T17:10:56.792Z,37.19
2022-08-27T17:13:28.651Z,37.71
2022-08-27T17:15:57.473Z,38.16
2022-08-27T17:18:27.834Z,38.25
2022-08-27T17:20:59.218Z,38.61
2022-08-27T17:23:39.378Z,39.33
2022-08-27T17:26:09.994Z,39.72
2022-08-27T17:28:40.775Z,40.06
2022-08-27T17:31:11.621Z,40.07
2022-08-27T17:33:43.427Z,40.32
2022-08-27T17:36:12.933Z,40.03
2022-08-27T17:38:42.337Z,40.07
2022-08-27T17:41:16.322Z,40.30
2022-08-27T17:43:44.524Z,40.79
2022-08-27T17:46:13.859Z,41.29
2022-08-27T17:48:42.816Z,41.49
2022-08-27T17:51:13.562Z,41.67
2022-08-27T17:53:47.355Z,41.86
2022-08-27T17:56:18.908Z,42.29
2022-08-27T17:58:48.464Z,42.82
2022-08-27T18:01:30.485Z,43.15
2022-08-27T18:03:59.771Z,43.35
2022-08-27T18:06:28.577Z,43.82
2022-08-27T18:08:56.989Z,43.85
2022-08-27T18:11:25.500Z,43.57
2022-08-27T18:13:58.288Z,43.79
2022-08-27T18:16:27.878Z,44.02
2022-08-27T18:18:56.436Z,44.14
2022-08-27T18:21:25.535Z,43.88
2022-08-27T18:23:54.950Z,43.65
2022-08-27T18:26:26.017Z,43.97
2022-08-27T18:28:56.098Z,44.35
2022-08-27T18:31:29.939Z,44.76
2022-08-27T18:34:00.092Z,45.24
2022-08-27T18:36:29.737Z,45.56
2022-08-27T18:38:58.339Z,46.12
2022-08-27T18:41:28.728Z,46.40
2022-08-27T18:43:57.727Z,47.42
2022-08-27T18:46:26.516Z,47.54
2022-08-27T18:48:54.755Z,48.54
2022-08-27T18:51:22.997Z,50.72
2022-08-27T18:53:50.972Z,50.72
2022-08-27T18:56:19.655Z,50.11
2022-08-27T18:58:49.138Z,49.88
2022-08-27T19:01:26.016Z,50.25
2022-08-27T19:03:57.186Z,50.26
2022-08-27T19:06:25.885Z,50.54
2022-08-27T19:08:53.938Z,50.54
2022-08-27T19:11:22.229Z,50.71
2022-08-27T19:13:51.288Z,50.13
2022-08-27T19:16:24.226Z,50.08
2022-08-27T19:18:52.551Z,50.30
2022-08-27T19:21:20.730Z,50.32
2022-08-27T19:23:51.259Z,49.94
2022-08-27T19:26:24.145Z,50.45
2022-08-27T19:28:52.831Z,50.52
2022-08-27T19:31:21.266Z,50.90
2022-08-27T19:33:50.100Z,51.06
2022-08-27T19:36:21.137Z,51.56
2022-08-27T19:38:51.720Z,52.23
2022-08-27T19:41:21.451Z,52.10
2022-08-27T19:43:52.050Z,52.33
2022-08-27T19:46:22.352Z,52.21
2022-08-27T19:48:50.512Z,52.44
2022-08-27T19:51:19.505Z,52.85
2022-08-27T19:53:47.883Z,53.40
2022-08-27T19:56:16.264Z,53.49
2022-08-27T19:58:45.558Z,53.66
2022-08-27T20:01:13.923Z,53.58
2022-08-27T20:03:42.044Z,53.16
2022-08-27T20:06:10.493Z,53.12
2022-08-27T20:08:38.776Z,53.36
2022-08-27T20:11:07.045Z,53.45
2022-08-27T20:13:35.245Z,53.29
2022-08-27T20:16:06.669Z,53.25
2022-08-27T20:18:41.461Z,53.56
2022-08-27T20:21:09.673Z,54.16
2022-08-27T20:23:37.853Z,54.48
2022-08-27T20:26:06.438Z,54.65
2022-08-27T20:28:39.208Z,54.88
2022-08-27T20:31:08.546Z,54.99
2022-08-27T20:33:36.695Z,54.95
2022-08-27T20:36:06.813Z,55.12
2022-08-27T20:38:35.567Z,55.19
2022-08-27T20:41:05.060Z,55.30
2022-08-27T20:43:34.207Z,55.70
2022-08-27T20:46:03.168Z,56.32
2022-08-27T20:48:31.470Z,57.03
2022-08-27T20:50:59.542Z,57.11
2022-08-27T20:53:27.817Z,57.52
2022-08-27T20:55:56.950Z,57.85
2022-08-27T20:58:44.338Z,58.05
2022-08-27T21:01:12.814Z,58.24
2022-08-27T21:03:40.993Z,58.23
2022-08-27T21:06:09.479Z,58.53
2022-08-27T21:08:39.397Z,58.56
2022-08-27T21:11:13.711Z,58.53
2022-08-27T21:13:55.373Z,58.60
2022-08-27T21:16:25.912Z,58.76
2022-08-27T21:18:54.136Z,58.60
2022-08-27T21:21:22.792Z,58.91
2022-08-27T21:23:51.109Z,59.09
2022-08-27T21:26:20.478Z,59.02
2022-08-27T21:28:48.529Z,59.09
2022-08-27T21:31:25.323Z,59.25
2022-08-27T21:33:53.701Z,59.43
2022-08-27T21:36:22.694Z,59.73
2022-08-27T21:38:50.861Z,59.85
2022-08-27T21:41:20.415Z,59.58
2022-08-27T21:43:48.644Z,59.48
2022-08-27T21:46:17.870Z,59.58
2022-08-27T21:48:47.448Z,59.84
2022-08-27T21:51:27.201Z,59.66
2022-08-27T21:53:55.374Z,59.60
2022-08-27T21:56:24.055Z,59.74
2022-08-27T21:58:52.434Z,59.93
2022-08-27T22:01:20.639Z,60.10
2022-08-27T22:03:51.887Z,60.27
2022-08-27T22:06:20.234Z,60.52
2022-08-27T22:08:48.945Z,60.51
2022-08-27T22:11:22.013Z,60.55
2022-08-27T22:13:53.768Z,60.71
2022-08-27T22:16:21.977Z,60.59
2022-08-27T22:18:54.312Z,60.64
2022-08-27T22:21:24.336Z,60.79
2022-08-27T22:23:52.920Z,60.96
2022-08-27T22:26:22.038Z,60.87
2022-08-27T22:28:50.401Z,61.20
2022-08-27T22:31:19.308Z,61.38
2022-08-27T22:33:48.068Z,61.42
2022-08-27T22:36:16.245Z,61.40
2022-08-27T22:38:44.416Z,61.52
2022-08-27T22:41:14.027Z,61.75
2022-08-27T22:43:45.401Z,62.05
2022-08-27T22:46:13.605Z,62.00
2022-08-27T22:48:41.826Z,62.39
2022-08-27T22:51:12.673Z,62.41
2022-08-27T22:53:41.048Z,62.85
2022-08-27T22:56:09.318Z,62.68
2022-08-27T22:58:37.327Z,62.65
2022-08-27T23:01:05.834Z,63.03
2022-08-27T23:03:33.857Z,63.10
2022-08-27T23:06:03.036Z,63.44
2022-08-27T23:08:31.957Z,63.61
2022-08-27T23:11:00.021Z,63.82
2022-08-27T23:13:29.813Z,63.93
2022-08-27T23:16:03.176Z,63.94
2022-08-27T23:18:31.487Z,64.08
2022-08-27T23:20:59.661Z,63.91
2022-08-27T23:23:30.763Z,63.81
2022-08-27T23:26:17.967Z,63.88
2022-08-27T23:28:46.083Z,64.21
2022-08-27T23:31:14.993Z,64.25
2022-08-27T23:33:43.424Z,64.29
2022-08-27T23:36:12.258Z,64.29
2022-08-27T23:38:40.434Z,64.13
2022-08-27T23:41:08.608Z,64.08
2022-08-27T23:43:36.786Z,64.00
2022-08-27T23:46:05.039Z,63.95
2022-08-27T23:48:33.646Z,64.17
2022-08-27T23:51:02.025Z,64.23
2022-08-27T23:53:30.115Z,64.18
2022-08-27T23:55:58.165Z,64.27
2022-08-27T23:58:27.050Z,64.27
